sensor_id;sensor_type;location;lat;lon;timestamp;pressure;altitude;pressure_sealevel;temperature;humidity
71638;BME280;59485;43.542;-5.676;2023-09-12T00:00:55;66589.81;;;0.00;nan
71638;BME280;59485;43.542;-5.676;2023-09-12T00:03:22;66580.66;;;0.00;nan
71638;BME280;59485;43.542;-5.676;2023-09-12T00:05:54;66560.81;;;0.00;nan
71638;BME280;59485;43.542;-5.676;2023-09-12T00:08:20;66574.53;;;0.00;nan
71638;BME280;59485;43.542;-5.676;2023-09-12T00:10:46;66617.28;;;0.00;nan
71638;BME280;59485;43.542;-5.676;2023-09-12T00:13:12;66609.63;;;0.00;nan
71638;BME280;59485;43.542;-5.676;2023-09-12T00:15:37;66589.81;;;0.00;nan
71638;BME280;59485;43.542;-5.676;2023-09-12T00:18:03;66566.91;;;0.00;nan
71638;BME280;59485;43.542;-5.676;2023-09-12T00:20:29;66670.69;;;0.00;nan
71638;BME280;59485;43.542;-5.676;2023-09-12T00:22:55;66653.88;;;0.00;nan
71638;BME280;59485;43.542;-5.676;2023-09-12T00:25:21;66626.44;;;0.00;nan
71638;BME280;59485;43.542;-5.676;2023-09-12T00:27:47;66649.31;;;0.00;nan
71638;BME280;59485;43.542;-5.676;2023-09-12T00:30:14;66632.53;;;0.00;nan
71638;BME280;59485;43.542;-5.676;2023-09-12T00:32:40;66609.63;;;0.00;nan
71638;BME280;59485;43.542;-5.676;2023-09-12T00:35:06;66547.06;;;0.00;nan
71638;BME280;59485;43.542;-5.676;2023-09-12T00:37:31;66588.28;;;0.00;nan
71638;BME280;59485;43.542;-5.676;2023-09-12T00:39:57;66582.19;;;0.00;nan
71638;BME280;59485;43.542;-5.676;2023-09-12T00:42:25;66566.91;;;0.00;nan
71638;BME280;59485;43.542;-5.676;2023-09-12T00:44:51;66611.16;;;0.00;nan
71638;BME280;59485;43.542;-5.676;2023-09-12T00:47:17;66617.28;;;0.00;nan
71638;BME280;59485;43.542;-5.676;2023-09-12T00:49:43;66624.91;;;0.00;nan
71638;BME280;59485;43.542;-5.676;2023-09-12T00:52:10;66617.28;;;0.00;nan
71638;BME280;59485;43.542;-5.676;2023-09-12T00:54:36;66635.59;;;0.00;nan
71638;BME280;59485;43.542;-5.676;2023-09-12T00:57:02;66620.31;;;0.00;nan
71638;BME280;59485;43.542;-5.676;2023-09-12T00:59:27;66649.31;;;0.00;nan
71638;BME280;59485;43.542;-5.676;2023-09-12T01:01:53;66655.41;;;0.00;nan
71638;BME280;59485;43.542;-5.676;2023-09-12T01:04:19;66621.84;;;0.00;nan
71638;BME280;59485;43.542;-5.676;2023-09-12T01:06:45;66620.31;;;0.00;nan
71638;BME280;59485;43.542;-5.676;2023-09-12T01:09:12;66618.78;;;0.00;nan
71638;BME280;59485;43.542;-5.676;2023-09-12T01:11:38;66602.00;;;0.00;nan
71638;BME280;59485;43.542;-5.676;2023-09-12T01:14:04;66649.31;;;0.00;nan
71638;BME280;59485;43.542;-5.676;2023-09-12T01:16:29;66644.72;;;0.00;nan
71638;BME280;59485;43.542;-5.676;2023-09-12T01:18:55;66634.06;;;0.00;nan
71638;BME280;59485;43.542;-5.676;2023-09-12T01:24:17;66611.16;;;0.00;nan
71638;BME280;59485;43.542;-5.676;2023-09-12T01:27:27;66644.72;;;0.00;nan
71638;BME280;59485;43.542;-5.676;2023-09-12T01:30:01;66646.25;;;0.00;nan
71638;BME280;59485;43.542;-5.676;2023-09-12T01:32:29;66629.47;;;0.00;nan
71638;BME280;59485;43.542;-5.676;2023-09-12T01:34:55;66647.78;;;0.00;nan
71638;BME280;59485;43.542;-5.676;2023-09-12T01:37:21;66673.72;;;0.00;nan
71638;BME280;59485;43.542;-5.676;2023-09-12T01:39:46;66656.94;;;0.00;nan
71638;BME280;59485;43.542;-5.676;2023-09-12T01:42:15;66638.63;;;0.00;nan
71638;BME280;59485;43.542;-5.676;2023-09-12T01:44:46;66644.72;;;0.00;nan
71638;BME280;59485;43.542;-5.676;2023-09-12T01:47:15;66641.69;;;0.00;nan
71638;BME280;59485;43.542;-5.676;2023-09-12T01:49:46;66646.25;;;0.00;nan
71638;BME280;59485;43.542;-5.676;2023-09-12T01:52:13;66640.16;;;0.00;nan
71638;BME280;59485;43.542;-5.676;2023-09-12T01:54:41;66643.22;;;0.00;nan
71638;BME280;59485;43.542;-5.676;2023-09-12T01:57:08;66641.69;;;0.00;nan
71638;BME280;59485;43.542;-5.676;2023-09-12T01:59:34;66641.69;;;0.00;nan
71638;BME280;59485;43.542;-5.676;2023-09-12T02:02:00;66640.16;;;0.00;nan
71638;BME280;59485;43.542;-5.676;2023-09-12T02:04:25;66644.72;;;0.00;nan
71638;BME280;59485;43.542;-5.676;2023-09-12T02:06:51;66650.84;;;0.00;nan
71638;BME280;59485;43.542;-5.676;2023-09-12T02:09:16;66643.22;;;0.00;nan
71638;BME280;59485;43.542;-5.676;2023-09-12T02:11:42;66614.22;;;0.00;nan
71638;BME280;59485;43.542;-5.676;2023-09-12T02:14:07;66638.63;;;0.00;nan
71638;BME280;59485;43.542;-5.676;2023-09-12T02:16:36;66623.38;;;0.00;nan
71638;BME280;59485;43.542;-5.676;2023-09-12T02:19:03;66618.78;;;0.00;nan
71638;BME280;59485;43.542;-5.676;2023-09-12T02:21:28;66617.28;;;0.00;nan
71638;BME280;59485;43.542;-5.676;2023-09-12T02:23:54;66629.47;;;0.00;nan
71638;BME280;59485;43.542;-5.676;2023-09-12T02:26:19;66643.22;;;0.00;nan
71638;BME280;59485;43.542;-5.676;2023-09-12T02:28:45;66623.38;;;0.00;nan
71638;BME280;59485;43.542;-5.676;2023-09-12T02:31:11;66632.53;;;0.00;nan
71638;BME280;59485;43.542;-5.676;2023-09-12T02:33:40;66592.84;;;0.00;nan
71638;BME280;59485;43.542;-5.676;2023-09-12T02:36:06;66634.06;;;0.00;nan
71638;BME280;59485;43.542;-5.676;2023-09-12T02:38:32;66611.16;;;0.00;nan
71638;BME280;59485;43.542;-5.676;2023-09-12T02:40:58;66606.59;;;0.00;nan
71638;BME280;59485;43.542;-5.676;2023-09-12T02:43:23;66638.63;;;0.00;nan
71638;BME280;59485;43.542;-5.676;2023-09-12T02:45:49;66641.69;;;0.00;nan
71638;BME280;59485;43.542;-5.676;2023-09-12T02:48:14;66608.13;;;0.00;nan
71638;BME280;59485;43.542;-5.676;2023-09-12T02:50:40;66621.84;;;0.00;nan
71638;BME280;59485;43.542;-5.676;2023-09-12T02:53:05;66629.47;;;0.00;nan
71638;BME280;59485;43.542;-5.676;2023-09-12T02:55:32;66606.59;;;0.00;nan
71638;BME280;59485;43.542;-5.676;2023-09-12T02:57:58;66598.97;;;0.00;nan
71638;BME280;59485;43.542;-5.676;2023-09-12T03:00:24;66605.06;;;0.00;nan
71638;BME280;59485;43.542;-5.676;2023-09-12T03:02:49;66595.91;;;0.00;nan
71638;BME280;59485;43.542;-5.676;2023-09-12T03:05:15;66602.00;;;0.00;nan
71638;BME280;59485;43.542;-5.676;2023-09-12T03:07:40;66595.91;;;0.00;nan
71638;BME280;59485;43.542;-5.676;2023-09-12T03:10:06;66605.06;;;0.00;nan
71638;BME280;59485;43.542;-5.676;2023-09-12T03:12:32;66623.38;;;0.00;nan
71638;BME280;59485;43.542;-5.676;2023-09-12T03:14:57;66632.53;;;0.00;nan
71638;BME280;59485;43.542;-5.676;2023-09-12T03:17:23;66617.28;;;0.00;nan
71638;BME280;59485;43.542;-5.676;2023-09-12T03:19:48;66597.44;;;0.00;nan
71638;BME280;59485;43.542;-5.676;2023-09-12T03:22:15;66605.06;;;0.00;nan
71638;BME280;59485;43.542;-5.676;2023-09-12T03:24:40;66608.13;;;0.00;nan
71638;BME280;59485;43.542;-5.676;2023-09-12T03:27:06;66583.69;;;0.00;nan
71638;BME280;59485;43.542;-5.676;2023-09-12T03:29:32;66589.81;;;0.00;nan
71638;BME280;59485;43.542;-5.676;2023-09-12T03:31:58;66576.06;;;0.00;nan
71638;BME280;59485;43.542;-5.676;2023-09-12T03:34:24;66595.91;;;0.00;nan
71638;BME280;59485;43.542;-5.676;2023-09-12T03:36:49;66629.47;;;0.00;nan
71638;BME280;59485;43.542;-5.676;2023-09-12T03:39:15;66606.59;;;0.00;nan
71638;BME280;59485;43.542;-5.676;2023-09-12T03:41:40;66643.22;;;0.00;nan
71638;BME280;59485;43.542;-5.676;2023-09-12T03:44:07;66621.84;;;0.00;nan
71638;BME280;59485;43.542;-5.676;2023-09-12T03:46:33;66623.38;;;0.00;nan
71638;BME280;59485;43.542;-5.676;2023-09-12T03:48:58;66608.13;;;0.00;nan
71638;BME280;59485;43.542;-5.676;2023-09-12T03:51:24;66615.75;;;0.00;nan
71638;BME280;59485;43.542;-5.676;2023-09-12T03:53:49;66608.13;;;0.00;nan
71638;BME280;59485;43.542;-5.676;2023-09-12T03:56:16;66598.97;;;0.00;nan
71638;BME280;59485;43.542;-5.676;2023-09-12T03:58:42;66589.81;;;0.00;nan
71638;BME280;59485;43.542;-5.676;2023-09-12T04:01:07;66576.06;;;0.00;nan
71638;BME280;59485;43.542;-5.676;2023-09-12T04:03:33;66614.22;;;0.00;nan
71638;BME280;59485;43.542;-5.676;2023-09-12T04:05:58;66643.22;;;0.00;nan
71638;BME280;59485;43.542;-5.676;2023-09-12T04:08:24;66638.63;;;0.00;nan
71638;BME280;59485;43.542;-5.676;2023-09-12T04:10:50;66624.91;;;0.00;nan
71638;BME280;59485;43.542;-5.676;2023-09-12T04:13:15;66641.69;;;0.00;nan
71638;BME280;59485;43.542;-5.676;2023-09-12T04:15:41;66631.00;;;0.00;nan
71638;BME280;59485;43.542;-5.676;2023-09-12T04:18:06;66617.28;;;0.00;nan
71638;BME280;59485;43.542;-5.676;2023-09-12T04:20:32;66627.94;;;0.00;nan
71638;BME280;59485;43.542;-5.676;2023-09-12T04:23:00;66608.13;;;0.00;nan
71638;BME280;59485;43.542;-5.676;2023-09-12T04:25:26;66603.53;;;0.00;nan
71638;BME280;59485;43.542;-5.676;2023-09-12T04:27:52;66612.69;;;0.00;nan
71638;BME280;59485;43.542;-5.676;2023-09-12T04:30:17;66600.47;;;0.00;nan
71638;BME280;59485;43.542;-5.676;2023-09-12T04:32:43;66600.47;;;0.00;nan
71638;BME280;59485;43.542;-5.676;2023-09-12T04:35:08;66606.59;;;0.00;nan
71638;BME280;59485;43.542;-5.676;2023-09-12T04:37:34;66612.69;;;0.00;nan
71638;BME280;59485;43.542;-5.676;2023-09-12T04:40:00;66600.47;;;0.00;nan
71638;BME280;59485;43.542;-5.676;2023-09-12T04:42:28;66586.75;;;0.00;nan
71638;BME280;59485;43.542;-5.676;2023-09-12T04:44:56;66627.94;;;0.00;nan
71638;BME280;59485;43.542;-5.676;2023-09-12T04:47:21;66640.16;;;0.00;nan
71638;BME280;59485;43.542;-5.676;2023-09-12T04:49:47;66623.38;;;0.00;nan
71638;BME280;59485;43.542;-5.676;2023-09-12T04:52:13;66617.28;;;0.00;nan
71638;BME280;59485;43.542;-5.676;2023-09-12T04:54:38;66626.44;;;0.00;nan
71638;BME280;59485;43.542;-5.676;2023-09-12T04:57:04;66661.53;;;0.00;nan
71638;BME280;59485;43.542;-5.676;2023-09-12T04:59:30;66672.19;;;0.00;nan
71638;BME280;59485;43.542;-5.676;2023-09-12T05:01:55;66605.06;;;0.00;nan
71638;BME280;59485;43.542;-5.676;2023-09-12T05:04:21;66620.31;;;0.00;nan
71638;BME280;59485;43.542;-5.676;2023-09-12T05:06:46;66647.78;;;0.00;nan
71638;BME280;59485;43.542;-5.676;2023-09-12T05:09:12;66620.31;;;0.00;nan
71638;BME280;59485;43.542;-5.676;2023-09-12T05:11:37;66641.69;;;0.00;nan
71638;BME280;59485;43.542;-5.676;2023-09-12T05:14:03;66634.06;;;0.00;nan
71638;BME280;59485;43.542;-5.676;2023-09-12T05:16:29;66629.47;;;0.00;nan
71638;BME280;59485;43.542;-5.676;2023-09-12T05:18:55;66629.47;;;0.00;nan
71638;BME280;59485;43.542;-5.676;2023-09-12T05:21:21;66629.47;;;0.00;nan
71638;BME280;59485;43.542;-5.676;2023-09-12T05:23:46;66627.94;;;0.00;nan
71638;BME280;59485;43.542;-5.676;2023-09-12T05:26:12;66629.47;;;0.00;nan
71638;BME280;59485;43.542;-5.676;2023-09-12T05:28:37;66626.44;;;0.00;nan
71638;BME280;59485;43.542;-5.676;2023-09-12T05:31:03;66641.69;;;0.00;nan
71638;BME280;59485;43.542;-5.676;2023-09-12T05:33:28;66646.25;;;0.00;nan
71638;BME280;59485;43.542;-5.676;2023-09-12T05:35:54;66653.88;;;0.00;nan
71638;BME280;59485;43.542;-5.676;2023-09-12T05:38:19;66664.56;;;0.00;nan
71638;BME280;59485;43.542;-5.676;2023-09-12T05:40:46;66650.84;;;0.00;nan
71638;BME280;59485;43.542;-5.676;2023-09-12T05:43:12;66663.03;;;0.00;nan
71638;BME280;59485;43.542;-5.676;2023-09-12T05:45:37;66713.41;;;0.00;nan
71638;BME280;59485;43.542;-5.676;2023-09-12T05:48:03;66669.16;;;0.00;nan
71638;BME280;59485;43.542;-5.676;2023-09-12T05:50:29;66696.63;;;0.00;nan
71638;BME280;59485;43.542;-5.676;2023-09-12T05:52:55;66687.47;;;0.00;nan
71638;BME280;59485;43.542;-5.676;2023-09-12T05:55:20;66672.19;;;0.00;nan
71638;BME280;59485;43.542;-5.676;2023-09-12T05:57:46;66669.16;;;0.00;nan
71638;BME280;59485;43.542;-5.676;2023-09-12T06:00:18;66663.03;;;0.00;nan
71638;BME280;59485;43.542;-5.676;2023-09-12T06:02:44;66675.25;;;0.00;nan
71638;BME280;59485;43.542;-5.676;2023-09-12T06:05:09;66675.25;;;0.00;nan
71638;BME280;59485;43.542;-5.676;2023-09-12T06:07:35;66690.50;;;0.00;nan
71638;BME280;59485;43.542;-5.676;2023-09-12T06:10:01;66664.56;;;0.00;nan
71638;BME280;59485;43.542;-5.676;2023-09-12T06:12:27;66693.56;;;0.00;nan
71638;BME280;59485;43.542;-5.676;2023-09-12T06:14:53;66675.25;;;0.00;nan
71638;BME280;59485;43.542;-5.676;2023-09-12T06:17:21;66682.88;;;0.00;nan
71638;BME280;59485;43.542;-5.676;2023-09-12T06:19:47;66679.84;;;0.00;nan
71638;BME280;59485;43.542;-5.676;2023-09-12T06:22:14;66714.94;;;0.00;nan
71638;BME280;59485;43.542;-5.676;2023-09-12T06:24:40;66704.25;;;0.00;nan
71638;BME280;59485;43.542;-5.676;2023-09-12T06:27:06;66702.72;;;0.00;nan
71638;BME280;59485;43.542;-5.676;2023-09-12T06:29:31;66663.03;;;0.00;nan
71638;BME280;59485;43.542;-5.676;2023-09-12T06:31:57;66672.19;;;0.00;nan
71638;BME280;59485;43.542;-5.676;2023-09-12T06:34:22;66684.41;;;0.00;nan
71638;BME280;59485;43.542;-5.676;2023-09-12T06:36:48;66696.63;;;0.00;nan
71638;BME280;59485;43.542;-5.676;2023-09-12T06:39:15;66669.16;;;0.00;nan
71638;BME280;59485;43.542;-5.676;2023-09-12T06:41:43;66673.72;;;0.00;nan
71638;BME280;59485;43.542;-5.676;2023-09-12T06:44:09;66695.09;;;0.00;nan
71638;BME280;59485;43.542;-5.676;2023-09-12T06:46:34;66687.47;;;0.00;nan
71638;BME280;59485;43.542;-5.676;2023-09-12T06:49:03;66679.84;;;0.00;nan
71638;BME280;59485;43.542;-5.676;2023-09-12T06:51:29;66666.09;;;0.00;nan
71638;BME280;59485;43.542;-5.676;2023-09-12T06:53:54;66670.69;;;0.00;nan
71638;BME280;59485;43.542;-5.676;2023-09-12T06:56:20;66667.63;;;0.00;nan
71638;BME280;59485;43.542;-5.676;2023-09-12T06:58:47;66629.47;;;0.00;nan
71638;BME280;59485;43.542;-5.676;2023-09-12T07:01:13;66641.69;;;0.00;nan
71638;BME280;59485;43.542;-5.676;2023-09-12T07:03:38;66660.00;;;0.00;nan
71638;BME280;59485;43.542;-5.676;2023-09-12T07:06:04;66663.03;;;0.00;nan
71638;BME280;59485;43.542;-5.676;2023-09-12T07:08:31;66669.16;;;0.00;nan
71638;BME280;59485;43.542;-5.676;2023-09-12T07:10:56;66656.94;;;0.00;nan
71638;BME280;59485;43.542;-5.676;2023-09-12T07:13:23;66653.88;;;0.00;nan
71638;BME280;59485;43.542;-5.676;2023-09-12T07:15:52;66656.94;;;0.00;nan
71638;BME280;59485;43.542;-5.676;2023-09-12T07:18:18;66678.31;;;0.00;nan
71638;BME280;59485;43.542;-5.676;2023-09-12T07:20:44;66698.13;;;0.00;nan
71638;BME280;59485;43.542;-5.676;2023-09-12T07:23:10;66693.56;;;0.00;nan
71638;BME280;59485;43.542;-5.676;2023-09-12T07:25:40;66696.63;;;0.00;nan
71638;BME280;59485;43.542;-5.676;2023-09-12T07:28:07;66684.41;;;0.00;nan
71638;BME280;59485;43.542;-5.676;2023-09-12T07:30:33;66681.34;;;0.00;nan
71638;BME280;59485;43.542;-5.676;2023-09-12T07:32:58;66682.88;;;0.00;nan
71638;BME280;59485;43.542;-5.676;2023-09-12T07:37:49;66669.16;;;0.00;nan
71638;BME280;59485;43.542;-5.676;2023-09-12T07:40:15;66684.41;;;0.00;nan
71638;BME280;59485;43.542;-5.676;2023-09-12T07:42:41;66705.78;;;0.00;nan
71638;BME280;59485;43.542;-5.676;2023-09-12T07:45:07;66672.19;;;0.00;nan
71638;BME280;59485;43.542;-5.676;2023-09-12T07:50:01;66667.63;;;0.00;nan
71638;BME280;59485;43.542;-5.676;2023-09-12T07:52:27;66666.09;;;0.00;nan
71638;BME280;59485;43.542;-5.676;2023-09-12T07:54:52;66660.00;;;0.00;nan
71638;BME280;59485;43.542;-5.676;2023-09-12T07:57:23;66670.69;;;0.00;nan
71638;BME280;59485;43.542;-5.676;2023-09-12T07:59:48;66650.84;;;0.00;nan
71638;BME280;59485;43.542;-5.676;2023-09-12T08:02:14;66650.84;;;0.00;nan
71638;BME280;59485;43.542;-5.676;2023-09-12T08:04:40;66656.94;;;0.00;nan
71638;BME280;59485;43.542;-5.676;2023-09-12T08:07:05;66653.88;;;0.00;nan
71638;BME280;59485;43.542;-5.676;2023-09-12T08:12:22;66629.47;;;0.00;nan
71638;BME280;59485;43.542;-5.676;2023-09-12T08:14:48;66638.63;;;0.00;nan
71638;BME280;59485;43.542;-5.676;2023-09-12T08:17:14;66623.38;;;0.00;nan
71638;BME280;59485;43.542;-5.676;2023-09-12T08:19:40;66624.91;;;0.00;nan
71638;BME280;59485;43.542;-5.676;2023-09-12T08:22:07;66603.53;;;0.00;nan
71638;BME280;59485;43.542;-5.676;2023-09-12T08:24:36;66615.75;;;0.00;nan
71638;BME280;59485;43.542;-5.676;2023-09-12T08:27:03;66623.38;;;0.00;nan
71638;BME280;59485;43.542;-5.676;2023-09-12T08:29:29;66592.84;;;0.00;nan
71638;BME280;59485;43.542;-5.676;2023-09-12T08:31:55;66602.00;;;0.00;nan
71638;BME280;59485;43.542;-5.676;2023-09-12T08:34:21;66650.84;;;0.00;nan
71638;BME280;59485;43.542;-5.676;2023-09-12T08:36:47;66647.78;;;0.00;nan
71638;BME280;59485;43.542;-5.676;2023-09-12T08:39:16;66638.63;;;0.00;nan
71638;BME280;59485;43.542;-5.676;2023-09-12T08:41:44;66629.47;;;0.00;nan
71638;BME280;59485;43.542;-5.676;2023-09-12T08:44:13;66626.44;;;0.00;nan
71638;BME280;59485;43.542;-5.676;2023-09-12T08:46:41;66617.28;;;0.00;nan
71638;BME280;59485;43.542;-5.676;2023-09-12T08:49:07;66624.91;;;0.00;nan
71638;BME280;59485;43.542;-5.676;2023-09-12T08:54:04;66571.50;;;0.00;nan
71638;BME280;59485;43.542;-5.676;2023-09-12T08:56:35;66557.75;;;0.00;nan
71638;BME280;59485;43.542;-5.676;2023-09-12T08:59:01;66577.59;;;0.00;nan
71638;BME280;59485;43.542;-5.676;2023-09-12T09:01:30;66536.41;;;0.00;nan
71638;BME280;59485;43.542;-5.676;2023-09-12T09:03:56;66544.03;;;0.00;nan
71638;BME280;59485;43.542;-5.676;2023-09-12T09:06:22;66522.66;;;0.00;nan
71638;BME280;59485;43.542;-5.676;2023-09-12T09:08:49;66518.09;;;0.00;nan
71638;BME280;59485;43.542;-5.676;2023-09-12T09:11:14;66518.09;;;0.00;nan
71638;BME280;59485;43.542;-5.676;2023-09-12T09:13:40;66522.66;;;0.00;nan
71638;BME280;59485;43.542;-5.676;2023-09-12T09:16:24;66521.13;;;0.00;nan
71638;BME280;59485;43.542;-5.676;2023-09-12T09:21:20;66553.19;;;0.00;nan
71638;BME280;59485;43.542;-5.676;2023-09-12T09:23:49;66562.34;;;0.00;nan
71638;BME280;59485;43.542;-5.676;2023-09-12T09:26:14;66551.66;;;0.00;nan
71638;BME280;59485;43.542;-5.676;2023-09-12T09:28:40;66539.44;;;0.00;nan
71638;BME280;59485;43.542;-5.676;2023-09-12T09:31:10;66534.88;;;0.00;nan
71638;BME280;59485;43.542;-5.676;2023-09-12T09:33:42;66556.22;;;0.00;nan
71638;BME280;59485;43.542;-5.676;2023-09-12T09:36:16;66557.75;;;0.00;nan
71638;BME280;59485;43.542;-5.676;2023-09-12T09:38:41;66556.22;;;0.00;nan
71638;BME280;59485;43.542;-5.676;2023-09-12T09:41:07;66539.44;;;0.00;nan
71638;BME280;59485;43.542;-5.676;2023-09-12T09:43:33;66551.66;;;0.00;nan
71638;BME280;59485;43.542;-5.676;2023-09-12T09:46:02;66547.06;;;0.00;nan
71638;BME280;59485;43.542;-5.676;2023-09-12T09:48:28;66565.38;;;0.00;nan
71638;BME280;59485;43.542;-5.676;2023-09-12T09:51:02;66550.13;;;0.00;nan
71638;BME280;59485;43.542;-5.676;2023-09-12T09:53:31;66554.72;;;0.00;nan
71638;BME280;59485;43.542;-5.676;2023-09-12T09:56:11;66566.91;;;0.00;nan
71638;BME280;59485;43.542;-5.676;2023-09-12T09:58:50;66556.22;;;0.00;nan
71638;BME280;59485;43.542;-5.676;2023-09-12T10:15:30;101793.84;;;23.39;100.00
71638;BME280;59485;43.542;-5.676;2023-09-12T10:18:00;101787.06;;;23.07;100.00
71638;BME280;59485;43.542;-5.676;2023-09-12T10:20:45;101790.06;;;23.17;100.00
71638;BME280;59485;43.542;-5.676;2023-09-12T10:23:43;101793.53;;;22.96;100.00
71638;BME280;59485;43.542;-5.676;2023-09-12T10:26:13;101801.31;;;22.94;100.00
71638;BME280;59485;43.542;-5.676;2023-09-12T10:28:43;101807.53;;;22.84;100.00
71638;BME280;59485;43.542;-5.676;2023-09-12T10:31:11;101806.44;;;22.97;100.00
71638;BME280;59485;43.542;-5.676;2023-09-12T10:33:37;101809.84;;;22.99;100.00
71638;BME280;59485;43.542;-5.676;2023-09-12T10:36:03;101807.66;;;22.66;100.00
71638;BME280;59485;43.542;-5.676;2023-09-12T10:38:32;101810.41;;;23.01;100.00
71638;BME280;59485;43.542;-5.676;2023-09-12T10:41:02;101809.78;;;23.10;100.00
71638;BME280;59485;43.542;-5.676;2023-09-12T10:43:29;101807.69;;;23.17;100.00
71638;BME280;59485;43.542;-5.676;2023-09-12T10:46:00;101805.97;;;22.88;100.00
71638;BME280;59485;43.542;-5.676;2023-09-12T10:48:27;101807.16;;;22.92;100.00
71638;BME280;59485;43.542;-5.676;2023-09-12T10:50:58;101816.63;;;23.03;100.00
71638;BME280;59485;43.542;-5.676;2023-09-12T10:53:26;101810.75;;;23.16;100.00
71638;BME280;59485;43.542;-5.676;2023-09-12T10:56:17;101818.50;;;23.26;100.00
71638;BME280;59485;43.542;-5.676;2023-09-12T11:01:33;101811.03;;;23.03;100.00
71638;BME280;59485;43.542;-5.676;2023-09-12T11:06:44;101816.63;;;23.31;100.00
71638;BME280;59485;43.542;-5.676;2023-09-12T11:11:42;101814.53;;;23.38;100.00
71638;BME280;59485;43.542;-5.676;2023-09-12T11:14:09;101813.84;;;23.31;100.00
71638;BME280;59485;43.542;-5.676;2023-09-12T11:16:35;101818.63;;;23.59;100.00
71638;BME280;59485;43.542;-5.676;2023-09-12T11:21:46;101815.13;;;23.52;100.00
71638;BME280;59485;43.542;-5.676;2023-09-12T11:24:13;101810.09;;;23.26;100.00
71638;BME280;59485;43.542;-5.676;2023-09-12T11:26:58;101818.19;;;23.39;100.00
71638;BME280;59485;43.542;-5.676;2023-09-12T11:31:58;101803.66;;;23.25;100.00
71638;BME280;59485;43.542;-5.676;2023-09-12T11:34:25;101800.94;;;23.30;100.00
71638;BME280;59485;43.542;-5.676;2023-09-12T11:36:55;101799.75;;;23.26;100.00
71638;BME280;59485;43.542;-5.676;2023-09-12T11:39:23;101799.28;;;23.17;100.00
71638;BME280;59485;43.542;-5.676;2023-09-12T11:41:50;101798.19;;;23.18;100.00
71638;BME280;59485;43.542;-5.676;2023-09-12T11:44:16;101790.97;;;23.34;100.00
71638;BME280;59485;43.542;-5.676;2023-09-12T11:46:47;101788.00;;;23.41;100.00
71638;BME280;59485;43.542;-5.676;2023-09-12T11:49:14;101793.16;;;23.61;100.00
71638;BME280;59485;43.542;-5.676;2023-09-12T11:51:53;101793.59;;;23.52;100.00
71638;BME280;59485;43.542;-5.676;2023-09-12T11:54:20;101780.09;;;23.38;100.00
71638;BME280;59485;43.542;-5.676;2023-09-12T11:56:47;101790.25;;;23.55;100.00
71638;BME280;59485;43.542;-5.676;2023-09-12T11:59:31;101790.25;;;23.55;100.00
71638;BME280;59485;43.542;-5.676;2023-09-12T12:01:57;101795.53;;;23.52;100.00
71638;BME280;59485;43.542;-5.676;2023-09-12T12:04:25;101792.81;;;23.57;100.00
71638;BME280;59485;43.542;-5.676;2023-09-12T12:06:52;101803.19;;;23.45;100.00
71638;BME280;59485;43.542;-5.676;2023-09-12T12:09:18;101793.75;;;23.63;100.00
71638;BME280;59485;43.542;-5.676;2023-09-12T12:11:48;101785.69;;;23.49;100.00
71638;BME280;59485;43.542;-5.676;2023-09-12T12:14:15;101801.59;;;23.20;100.00
71638;BME280;59485;43.542;-5.676;2023-09-12T12:16:42;101790.78;;;23.52;100.00
71638;BME280;59485;43.542;-5.676;2023-09-12T12:19:09;101785.22;;;23.41;100.00
71638;BME280;59485;43.542;-5.676;2023-09-12T12:21:35;101785.88;;;23.48;100.00
71638;BME280;59485;43.542;-5.676;2023-09-12T12:24:01;101788.00;;;23.52;100.00
71638;BME280;59485;43.542;-5.676;2023-09-12T12:26:28;101790.19;;;23.50;100.00
71638;BME280;59485;43.542;-5.676;2023-09-12T12:28:54;101792.22;;;23.72;100.00
71638;BME280;59485;43.542;-5.676;2023-09-12T12:31:19;101788.56;;;23.71;100.00
71638;BME280;59485;43.542;-5.676;2023-09-12T12:33:53;101789.53;;;23.77;100.00
71638;BME280;59485;43.542;-5.676;2023-09-12T12:36:19;101790.38;;;23.77;100.00
71638;BME280;59485;43.542;-5.676;2023-09-12T12:38:47;101785.53;;;23.73;100.00
71638;BME280;59485;43.542;-5.676;2023-09-12T12:41:30;101781.56;;;23.85;100.00
71638;BME280;59485;43.542;-5.676;2023-09-12T12:43:57;101785.28;;;23.74;100.00
71638;BME280;59485;43.542;-5.676;2023-09-12T12:46:26;101780.53;;;23.75;100.00
71638;BME280;59485;43.542;-5.676;2023-09-12T12:48:52;101777.84;;;23.80;100.00
71638;BME280;59485;43.542;-5.676;2023-09-12T12:51:25;101784.00;;;23.99;100.00
71638;BME280;59485;43.542;-5.676;2023-09-12T12:56:21;101788.19;;;23.96;100.00
71638;BME280;59485;43.542;-5.676;2023-09-12T12:58:52;101784.63;;;23.84;100.00
71638;BME280;59485;43.542;-5.676;2023-09-12T13:01:18;101786.50;;;23.78;100.00
71638;BME280;59485;43.542;-5.676;2023-09-12T13:03:44;101794.88;;;23.62;100.00
71638;BME280;59485;43.542;-5.676;2023-09-12T13:06:11;101795.38;;;23.92;100.00
71638;BME280;59485;43.542;-5.676;2023-09-12T13:08:47;101791.06;;;23.84;100.00
71638;BME280;59485;43.542;-5.676;2023-09-12T13:11:14;101793.63;;;23.86;100.00
71638;BME280;59485;43.542;-5.676;2023-09-12T13:13:41;101796.91;;;23.83;100.00
71638;BME280;59485;43.542;-5.676;2023-09-12T13:16:09;101798.38;;;24.02;100.00
71638;BME280;59485;43.542;-5.676;2023-09-12T13:18:36;101794.13;;;24.00;100.00
71638;BME280;59485;43.542;-5.676;2023-09-12T13:21:05;101796.84;;;23.78;100.00
71638;BME280;59485;43.542;-5.676;2023-09-12T13:23:35;101796.91;;;24.00;100.00
71638;BME280;59485;43.542;-5.676;2023-09-12T13:28:50;101781.13;;;23.77;100.00
71638;BME280;59485;43.542;-5.676;2023-09-12T13:31:23;101786.50;;;23.95;100.00
71638;BME280;59485;43.542;-5.676;2023-09-12T13:36:20;101772.94;;;24.59;100.00
71638;BME280;59485;43.542;-5.676;2023-09-12T13:41:25;101789.69;;;24.37;100.00
71638;BME280;59485;43.542;-5.676;2023-09-12T13:43:51;101785.72;;;24.33;100.00
71638;BME280;59485;43.542;-5.676;2023-09-12T13:46:16;101794.22;;;24.38;100.00
71638;BME280;59485;43.542;-5.676;2023-09-12T13:48:45;101785.84;;;24.60;100.00
71638;BME280;59485;43.542;-5.676;2023-09-12T13:51:11;101788.81;;;24.53;100.00
71638;BME280;59485;43.542;-5.676;2023-09-12T13:53:38;101781.19;;;24.71;100.00
71638;BME280;59485;43.542;-5.676;2023-09-12T13:56:05;101780.94;;;24.72;100.00
71638;BME280;59485;43.542;-5.676;2023-09-12T13:58:31;101774.56;;;25.20;100.00
71638;BME280;59485;43.542;-5.676;2023-09-12T14:01:01;101770.84;;;24.71;100.00